createdAt,value
2023-04-16T00:01:04.643Z,5.32
2023-04-16T00:03:34.259Z,5.34
2023-04-16T00:06:02.876Z,5.36
2023-04-16T00:08:31.171Z,5.39
2023-04-16T00:10:59.531Z,5.41
2023-04-16T00:13:28.127Z,5.37
2023-04-16T00:15:56.408Z,5.33
2023-04-16T00:18:24.878Z,5.30
2023-04-16T00:20:53.687Z,5.24
2023-04-16T00:23:22.049Z,5.24
2023-04-16T00:25:50.267Z,5.32
2023-04-16T00:28:18.608Z,5.40
2023-04-16T00:30:47.115Z,5.44
2023-04-16T00:33:16.201Z,5.46
2023-04-16T00:35:48.283Z,5.50
2023-04-16T00:38:16.951Z,5.56
2023-04-16T00:40:45.545Z,5.62
2023-04-16T00:43:23.062Z,5.67
2023-04-16T00:45:53.111Z,5.69
2023-04-16T00:48:21.559Z,5.69
2023-04-16T00:50:49.625Z,5.65
2023-04-16T00:53:17.974Z,5.61
2023-04-16T00:55:46.558Z,5.54
2023-04-16T00:58:14.941Z,5.55
2023-04-16T01:00:43.320Z,5.56
2023-04-16T01:03:12.037Z,5.53
2023-04-16T01:05:41.121Z,5.51
2023-04-16T01:08:20.605Z,5.51
2023-04-16T01:10:48.849Z,5.50
2023-04-16T01:13:17.206Z,5.40
2023-04-16T01:15:45.582Z,5.35
2023-04-16T01:18:18.789Z,5.33
2023-04-16T01:20:48.748Z,5.36
2023-04-16T01:23:21.003Z,5.32
2023-04-16T01:25:49.267Z,5.26
2023-04-16T01:28:18.078Z,5.21
2023-04-16T01:30:46.342Z,5.15
2023-04-16T01:33:34.890Z,5.10
2023-04-16T01:36:03.187Z,5.09
2023-04-16T01:38:31.385Z,5.08
2023-04-16T01:41:00.238Z,5.07
2023-04-16T01:43:28.515Z,5.05
2023-04-16T01:46:20.716Z,5.04
2023-04-16T01:48:49.123Z,5.00
2023-04-16T01:51:17.402Z,5.00
2023-04-16T01:53:46.496Z,5.00
2023-04-16T01:56:14.674Z,4.96
2023-04-16T01:58:43.264Z,5.04
2023-04-16T02:01:12.247Z,5.03
2023-04-16T02:03:42.007Z,4.99
2023-04-16T02:06:10.544Z,4.89
2023-04-16T02:08:38.823Z,4.78
2023-04-16T02:11:07.821Z,4.71
2023-04-16T02:13:36.921Z,4.67
2023-04-16T02:16:06.165Z,4.69
2023-04-16T02:18:55.323Z,4.61
2023-04-16T02:21:24.379Z,4.58
2023-04-16T02:23:52.864Z,4.57
2023-04-16T02:26:26.713Z,4.50
2023-04-16T02:28:56.707Z,4.49
2023-04-16T02:31:28.999Z,4.47
2023-04-16T02:33:58.398Z,4.48
2023-04-16T02:36:27.664Z,4.47
2023-04-16T02:38:56.245Z,4.51
2023-04-16T02:41:25.377Z,4.47
2023-04-16T02:43:53.726Z,4.41
2023-04-16T02:46:22.450Z,4.41
2023-04-16T02:48:51.645Z,4.37
2023-04-16T02:51:20.200Z,4.45
2023-04-16T02:53:48.641Z,4.49
2023-04-16T02:56:16.874Z,4.48
2023-04-16T02:58:45.488Z,4.37
2023-04-16T03:01:13.797Z,4.30
2023-04-16T03:03:42.107Z,4.20
2023-04-16T03:06:10.299Z,4.17
2023-04-16T03:08:38.586Z,4.14
2023-04-16T03:11:07.824Z,4.03
2023-04-16T03:13:36.472Z,4.00
2023-04-16T03:16:05.389Z,3.99
2023-04-16T03:18:33.458Z,4.06
2023-04-16T03:21:01.690Z,4.01
2023-04-16T03:23:31.091Z,3.94
2023-04-16T03:25:59.475Z,3.83
2023-04-16T03:28:27.955Z,3.80
2023-04-16T03:30:56.492Z,3.75
2023-04-16T03:33:25.024Z,3.70
2023-04-16T03:35:59.750Z,3.70
2023-04-16T03:38:30.623Z,3.68
2023-04-16T03:41:00.180Z,3.64
2023-04-16T03:43:28.703Z,3.63
2023-04-16T03:45:57.488Z,3.71
2023-04-16T03:48:26.171Z,3.71
2023-04-16T03:50:55.198Z,3.69
2023-04-16T03:53:23.745Z,3.64
2023-04-16T03:55:52.945Z,3.62
2023-04-16T03:58:22.060Z,3.63
2023-04-16T04:00:52.059Z,3.64
2023-04-16T04:03:21.185Z,3.67
2023-04-16T04:05:50.698Z,3.66
2023-04-16T04:08:26.322Z,3.72
2023-04-16T04:10:54.798Z,3.71
2023-04-16T04:13:24.514Z,3.79
2023-04-16T04:15:53.313Z,3.88
2023-04-16T04:18:22.256Z,3.91
2023-04-16T04:20:50.482Z,3.91
2023-04-16T04:23:20.588Z,3.93
2023-04-16T04:25:49.363Z,3.95
2023-04-16T04:28:17.863Z,3.92
2023-04-16T04:30:46.141Z,3.97
2023-04-16T04:33:14.646Z,4.02
2023-04-16T04:35:43.420Z,4.06
2023-04-16T04:40:40.274Z,4.09
2023-04-16T04:43:09.534Z,4.12
2023-04-16T04:45:37.919Z,4.17
2023-04-16T04:48:07.367Z,4.29
2023-04-16T04:50:37.125Z,4.42
2023-04-16T04:53:10.177Z,4.55
2023-04-16T04:55:39.849Z,4.67
2023-04-16T04:58:08.828Z,4.82
2023-04-16T05:00:37.567Z,4.96
2023-04-16T05:03:09.812Z,5.11
2023-04-16T05:05:40.901Z,5.29
2023-04-16T05:08:09.075Z,5.50
2023-04-16T05:10:37.391Z,5.70
2023-04-16T05:13:05.928Z,5.90
2023-04-16T05:15:34.105Z,6.12
2023-04-16T05:18:02.550Z,6.32
2023-04-16T05:20:31.159Z,6.64
2023-04-16T05:22:59.318Z,7.38
2023-04-16T05:25:27.552Z,8.40
2023-04-16T05:27:56.004Z,9.03
2023-04-16T05:30:24.533Z,9.28
2023-04-16T05:32:52.816Z,9.70
2023-04-16T05:35:21.348Z,10.18
2023-04-16T05:37:49.722Z,9.92
2023-04-16T05:40:17.999Z,9.85
2023-04-16T05:42:46.115Z,9.73
2023-04-16T05:45:14.552Z,9.70
2023-04-16T05:47:43.071Z,9.71
2023-04-16T05:50:11.635Z,9.77
2023-04-16T05:52:40.013Z,9.81
2023-04-16T05:55:08.791Z,10.03
2023-04-16T05:57:37.069Z,10.60
2023-04-16T06:00:06.271Z,11.54
2023-04-16T06:02:40.450Z,12.59
2023-04-16T06:05:08.945Z,13.36
2023-04-16T06:07:37.294Z,13.78
2023-04-16T06:10:06.170Z,14.21
2023-04-16T06:12:34.433Z,14.71
2023-04-16T06:15:03.836Z,15.20
2023-04-16T06:17:32.223Z,15.84
2023-04-16T06:20:00.640Z,15.96
2023-04-16T06:22:29.084Z,16.11
2023-04-16T06:24:57.448Z,16.46
2023-04-16T06:27:26.085Z,16.42
2023-04-16T06:29:54.524Z,16.82
2023-04-16T06:32:22.948Z,17.12
2023-04-16T06:34:51.491Z,17.69
2023-04-16T06:37:19.759Z,17.55
2023-04-16T06:39:47.963Z,17.65
2023-04-16T06:42:16.316Z,17.83
2023-04-16T06:44:44.529Z,18.01
2023-04-16T06:47:12.692Z,18.45
2023-04-16T06:49:40.808Z,18.70
2023-04-16T06:52:09.124Z,18.82
2023-04-16T06:54:37.296Z,18.98
2023-04-16T06:57:05.387Z,19.26
2023-04-16T06:59:33.544Z,19.11
2023-04-16T07:02:02.166Z,18.91
2023-04-16T07:04:30.729Z,18.63
2023-04-16T07:06:59.116Z,18.31
2023-04-16T07:09:27.600Z,18.49
2023-04-16T07:11:55.863Z,18.80
2023-04-16T07:14:24.128Z,18.80
2023-04-16T07:16:52.564Z,18.65
2023-04-16T07:19:21.471Z,18.22
2023-04-16T07:21:49.775Z,18.21
2023-04-16T07:24:18.069Z,18.53
2023-04-16T07:26:46.304Z,18.28
2023-04-16T07:29:14.626Z,18.01
2023-04-16T07:31:42.924Z,18.07
2023-04-16T07:34:11.790Z,18.08
2023-04-16T07:36:40.073Z,17.79
2023-04-16T07:39:08.761Z,17.53
2023-04-16T07:41:37.551Z,17.07
2023-04-16T07:44:06.046Z,17.11
2023-04-16T07:46:43.582Z,17.07
2023-04-16T07:49:15.752Z,16.94
2023-04-16T07:51:44.192Z,17.14
2023-04-16T07:54:12.497Z,17.41
2023-04-16T07:56:41.078Z,17.35
2023-04-16T07:59:21.846Z,17.18
2023-04-16T08:01:54.110Z,17.24
2023-04-16T08:04:26.271Z,17.02
2023-04-16T08:06:55.053Z,16.83
2023-04-16T08:09:28.907Z,16.71
2023-04-16T08:11:57.705Z,16.94
2023-04-16T08:14:25.821Z,17.04
2023-04-16T08:16:54.126Z,17.11
2023-04-16T08:19:22.385Z,17.27
2023-04-16T08:21:50.597Z,17.28
2023-04-16T08:24:18.759Z,17.27
2023-04-16T08:26:47.114Z,17.05
2023-04-16T08:29:15.498Z,17.17
2023-04-16T08:31:44.248Z,17.01
2023-04-16T08:34:12.970Z,16.69
2023-04-16T08:36:41.796Z,16.67
2023-04-16T08:39:10.322Z,16.56
2023-04-16T08:41:44.882Z,16.52
2023-04-16T08:44:28.473Z,16.41
2023-04-16T08:46:59.307Z,16.35
2023-04-16T08:49:28.444Z,16.25
2023-04-16T08:51:57.439Z,16.23
2023-04-16T08:54:25.637Z,16.28
2023-04-16T08:56:55.284Z,16.23
2023-04-16T08:59:24.389Z,16.23
2023-04-16T09:01:58.279Z,16.26
2023-04-16T09:04:30.836Z,16.17
2023-04-16T09:06:59.506Z,16.10
2023-04-16T09:09:28.635Z,16.15
2023-04-16T09:11:56.871Z,16.24
2023-04-16T09:14:25.261Z,16.13
2023-04-16T09:16:57.530Z,16.08
2023-04-16T09:19:26.009Z,15.95
2023-04-16T09:21:54.416Z,16.03
2023-04-16T09:24:23.281Z,16.04
2023-04-16T09:26:54.305Z,15.97
2023-04-16T09:29:38.525Z,15.88
2023-04-16T09:32:07.963Z,15.93
2023-04-16T09:34:53.709Z,15.90
2023-04-16T09:37:22.251Z,16.00
2023-04-16T09:39:55.971Z,16.02
2023-04-16T09:42:25.812Z,16.06
2023-04-16T09:44:56.230Z,16.11
2023-04-16T09:47:46.458Z,16.09
2023-04-16T09:50:19.288Z,16.07
2023-04-16T09:52:51.761Z,16.15
2023-04-16T09:55:27.430Z,16.32
2023-04-16T09:58:04.463Z,16.41
2023-04-16T10:00:32.776Z,16.55
2023-04-16T10:03:07.713Z,16.57
2023-04-16T10:05:36.697Z,16.49
2023-04-16T10:08:13.509Z,16.50
2023-04-16T10:10:42.197Z,16.48
2023-04-16T10:13:11.056Z,16.51
2023-04-16T10:15:39.923Z,16.51
2023-04-16T10:18:08.713Z,16.47
2023-04-16T10:20:37.689Z,16.48
2023-04-16T10:23:06.632Z,16.53
2023-04-16T10:25:34.964Z,16.57
2023-04-16T10:28:03.644Z,16.61
2023-04-16T10:30:32.243Z,16.61
2023-04-16T10:33:02.531Z,16.61
2023-04-16T10:35:31.400Z,16.58
2023-04-16T10:38:27.222Z,16.58
2023-04-16T10:41:02.962Z,16.54
2023-04-16T10:43:33.819Z,16.55
2023-04-16T10:46:37.976Z,16.47
2023-04-16T10:49:18.009Z,16.41
2023-04-16T10:52:01.222Z,16.43
2023-04-16T10:54:30.969Z,16.45
2023-04-16T10:57:04.812Z,16.55
2023-04-16T10:59:35.361Z,16.64
2023-04-16T11:02:09.850Z,16.61
2023-04-16T11:04:40.441Z,16.59
2023-04-16T11:07:14.557Z,16.57
2023-04-16T11:09:47.933Z,16.67
2023-04-16T11:12:19.306Z,16.59
2023-04-16T11:14:53.520Z,16.53
2023-04-16T11:17:22.723Z,16.62
2023-04-16T11:19:51.348Z,16.62
2023-04-16T11:22:22.165Z,16.54
2023-04-16T11:24:56.325Z,16.59
2023-04-16T11:27:25.113Z,16.58
2023-04-16T11:30:06.559Z,16.63
2023-04-16T11:32:36.515Z,16.61
2023-04-16T11:35:13.622Z,16.53
2023-04-16T11:37:42.804Z,16.48
2023-04-16T11:40:11.833Z,16.52
2023-04-16T11:42:41.652Z,16.57
2023-04-16T11:45:11.926Z,16.60
2023-04-16T11:47:53.466Z,16.66
2023-04-16T11:50:26.025Z,16.70
2023-04-16T11:52:56.931Z,16.82
2023-04-16T11:55:25.634Z,16.89
2023-04-16T11:57:53.936Z,16.95
2023-04-16T12:00:24.732Z,16.98
2023-04-16T12:02:55.317Z,17.03
2023-04-16T12:05:28.720Z,17.10
2023-04-16T12:08:02.040Z,17.07
2023-04-16T12:10:32.609Z,17.00
2023-04-16T12:13:17.607Z,17.02
2023-04-16T12:15:49.783Z,16.96
2023-04-16T12:18:20.473Z,16.92
2023-04-16T12:20:51.148Z,17.00
2023-04-16T12:23:30.879Z,17.01
2023-04-16T12:26:03.151Z,16.93
2023-04-16T12:28:34.183Z,16.93
2023-04-16T12:31:03.788Z,16.99
2023-04-16T12:33:32.240Z,17.06
2023-04-16T12:36:01.803Z,17.19
2023-04-16T12:38:31.005Z,17.26
2023-04-16T12:40:59.288Z,17.41
2023-04-16T12:43:27.771Z,17.50
2023-04-16T12:45:56.241Z,17.43
2023-04-16T12:48:24.623Z,17.42
2023-04-16T12:50:55.253Z,17.28
2023-04-16T12:53:23.364Z,17.34
2023-04-16T12:55:51.824Z,17.32
2023-04-16T12:58:20.396Z,17.29
2023-04-16T13:00:48.483Z,17.24
2023-04-16T13:03:16.798Z,17.23
2023-04-16T13:05:45.765Z,17.20
2023-04-16T13:08:14.028Z,17.20
2023-04-16T13:10:42.757Z,17.22
2023-04-16T13:13:11.205Z,17.22
2023-04-16T13:15:39.831Z,17.27
2023-04-16T13:18:08.186Z,17.26
2023-04-16T13:20:36.746Z,17.20
2023-04-16T13:23:05.382Z,17.18
2023-04-16T13:25:33.709Z,17.15
2023-04-16T13:28:02.204Z,17.08
2023-04-16T13:30:31.918Z,17.05
2023-04-16T13:33:00.324Z,17.03
2023-04-16T13:35:30.303Z,17.04
2023-04-16T13:37:58.482Z,17.09
2023-04-16T13:40:26.858Z,17.02
2023-04-16T13:42:55.050Z,17.00
2023-04-16T13:45:23.415Z,16.98
2023-04-16T13:47:51.927Z,16.89
2023-04-16T13:50:20.590Z,16.88
2023-04-16T13:52:49.169Z,16.92
2023-04-16T13:55:19.351Z,17.01
2023-04-16T13:57:47.874Z,17.10
2023-04-16T14:00:17.390Z,17.10
2023-04-16T14:02:49.055Z,17.08
2023-04-16T14:05:17.522Z,17.07
2023-04-16T14:07:46.659Z,17.02
2023-04-16T14:10:14.997Z,17.04
2023-04-16T14:12:44.899Z,17.04
2023-04-16T14:15:15.061Z,16.92
2023-04-16T14:17:44.312Z,16.87
2023-04-16T14:20:14.216Z,16.85
2023-04-16T14:22:44.101Z,16.82
2023-04-16T14:25:12.682Z,16.80
2023-04-16T14:27:41.791Z,16.71
2023-04-16T14:30:10.441Z,16.66
2023-04-16T14:32:38.844Z,16.63
2023-04-16T14:35:08.558Z,16.60
2023-04-16T14:37:37.484Z,16.58
2023-04-16T14:40:08.958Z,16.47
2023-04-16T14:42:37.880Z,16.42
2023-04-16T14:45:07.497Z,16.39
2023-04-16T14:47:37.906Z,16.41
2023-04-16T14:50:06.965Z,16.38
2023-04-16T14:52:35.490Z,16.36
2023-04-16T14:55:04.019Z,16.28
2023-04-16T14:57:33.694Z,16.01
2023-04-16T15:00:02.176Z,15.79
2023-04-16T15:02:30.850Z,15.65
2023-04-16T15:05:00.695Z,15.54
2023-04-16T15:07:28.876Z,15.30
2023-04-16T15:09:57.231Z,15.19
2023-04-16T15:12:26.637Z,14.90
2023-04-16T15:14:54.917Z,14.70
2023-04-16T15:17:23.326Z,14.54
2023-04-16T15:19:52.535Z,14.39
2023-04-16T15:22:20.972Z,14.28
2023-04-16T15:24:50.176Z,14.15
2023-04-16T15:27:19.485Z,14.03
2023-04-16T15:29:49.495Z,13.97
2023-04-16T15:32:17.873Z,13.84
2023-04-16T15:34:46.706Z,13.70
2023-04-16T15:37:15.974Z,13.69
2023-04-16T15:39:44.794Z,13.61
2023-04-16T15:42:13.453Z,13.57
2023-04-16T15:44:41.728Z,13.48
2023-04-16T15:47:10.008Z,13.43
2023-04-16T15:49:38.398Z,13.41
2023-04-16T15:52:06.908Z,13.38
2023-04-16T15:54:35.148Z,13.31
2023-04-16T15:57:03.564Z,13.27
2023-04-16T15:59:32.843Z,13.22
2023-04-16T16:02:01.629Z,13.16
2023-04-16T16:04:30.207Z,13.09
2023-04-16T16:06:58.890Z,13.06
2023-04-16T16:09:28.032Z,13.04
2023-04-16T16:11:58.037Z,12.95
2023-04-16T16:14:27.222Z,12.93
2023-04-16T16:16:55.721Z,12.91
2023-04-16T16:19:23.781Z,12.85
2023-04-16T16:21:52.046Z,12.83
2023-04-16T16:24:20.324Z,12.80
2023-04-16T16:26:48.803Z,12.78
2023-04-16T16:29:17.125Z,12.78
2023-04-16T16:31:45.528Z,12.78
2023-04-16T16:34:20.367Z,12.77
2023-04-16T16:36:49.735Z,12.77
2023-04-16T16:39:18.072Z,12.77
2023-04-16T16:41:47.896Z,12.79
2023-04-16T16:44:16.182Z,12.80
2023-04-16T16:46:44.790Z,12.78
2023-04-16T16:49:13.988Z,12.75
2023-04-16T16:51:42.641Z,12.75
2023-04-16T16:54:11.125Z,12.77
2023-04-16T16:56:39.409Z,12.76
2023-04-16T16:59:09.143Z,12.76
2023-04-16T17:01:37.571Z,12.75
2023-04-16T17:04:06.223Z,12.72
2023-04-16T17:06:35.048Z,12.68
2023-04-16T17:09:04.702Z,12.63
2023-04-16T17:11:33.177Z,12.59
2023-04-16T17:14:01.534Z,12.55
2023-04-16T17:16:29.986Z,12.51
2023-04-16T17:18:59.546Z,12.45
2023-04-16T17:21:28.143Z,12.42
2023-04-16T17:23:58.189Z,12.37
2023-04-16T17:26:26.629Z,12.31
2023-04-16T17:28:56.782Z,12.23
2023-04-16T17:31:27.206Z,12.19
2023-04-16T17:33:55.969Z,12.19
2023-04-16T17:36:25.601Z,12.16
2023-04-16T17:38:53.832Z,12.10
2023-04-16T17:41:22.064Z,12.07
2023-04-16T17:43:51.126Z,12.03
2023-04-16T17:46:19.521Z,12.01
2023-04-16T17:48:49.028Z,11.97
2023-04-16T17:51:17.419Z,11.96
2023-04-16T17:53:46.122Z,11.95
2023-04-16T17:56:14.767Z,11.90
2023-04-16T17:58:43.153Z,11.87
2023-04-16T18:01:11.692Z,11.84
2023-04-16T18:03:40.455Z,11.83
2023-04-16T18:06:08.824Z,11.78
2023-04-16T18:08:37.188Z,11.75
2023-04-16T18:11:08.864Z,11.72
2023-04-16T18:13:37.084Z,11.68
2023-04-16T18:16:05.379Z,11.66
2023-04-16T18:18:33.698Z,11.63
2023-04-16T18:21:01.849Z,11.58
2023-04-16T18:23:30.138Z,11.52
2023-04-16T18:25:58.917Z,11.43
2023-04-16T18:28:27.631Z,11.36
2023-04-16T18:30:58.874Z,11.27
2023-04-16T18:33:52.505Z,11.14
2023-04-16T18:36:15.901Z,11.04
2023-04-16T18:38:59.564Z,10.95
2023-04-16T18:41:31.957Z,10.97
2023-04-16T18:44:00.282Z,10.98
2023-04-16T18:46:28.505Z,10.96
2023-04-16T18:48:56.839Z,10.94
2023-04-16T18:51:25.523Z,10.95
2023-04-16T18:53:53.907Z,10.90
2023-04-16T18:56:22.147Z,10.87
2023-04-16T18:58:50.391Z,10.83
2023-04-16T19:01:18.700Z,10.83
2023-04-16T19:03:47.627Z,10.86
2023-04-16T19:06:16.014Z,10.92
2023-04-16T19:08:44.178Z,10.92
2023-04-16T19:11:12.492Z,10.89
2023-04-16T19:13:40.852Z,10.85
2023-04-16T19:16:11.656Z,10.86
2023-04-16T19:18:40.242Z,10.88
2023-04-16T19:21:11.120Z,10.90
2023-04-16T19:23:39.511Z,10.93
2023-04-16T19:26:07.989Z,10.95
2023-04-16T19:28:36.707Z,10.94
2023-04-16T19:31:04.945Z,10.96
2023-04-16T19:33:33.118Z,10.95
2023-04-16T19:36:02.645Z,10.97
2023-04-16T19:38:33.666Z,11.00
2023-04-16T19:41:02.184Z,11.00
2023-04-16T19:43:31.171Z,10.98
2023-04-16T19:45:59.530Z,10.93
2023-04-16T19:48:28.239Z,10.90
2023-04-16T19:50:56.327Z,10.90
2023-04-16T19:53:25.254Z,10.92
2023-04-16T19:55:53.458Z,10.93
2023-04-16T19:58:22.063Z,10.92
2023-04-16T20:00:50.764Z,10.88
2023-04-16T20:03:18.988Z,10.87
2023-04-16T20:05:50.995Z,10.86
2023-04-16T20:08:19.466Z,10.84
2023-04-16T20:10:47.532Z,10.84
2023-04-16T20:13:18.466Z,10.82
2023-04-16T20:15:47.466Z,10.79
2023-04-16T20:18:15.648Z,10.78
2023-04-16T20:20:43.832Z,10.75
2023-04-16T20:23:12.090Z,10.71
2023-04-16T20:25:44.053Z,10.66
2023-04-16T20:28:14.727Z,10.62
2023-04-16T20:30:43.077Z,10.57
2023-04-16T20:33:11.459Z,10.54
2023-04-16T20:35:39.954Z,10.47
2023-04-16T20:38:08.619Z,10.42
2023-04-16T20:40:38.329Z,10.43
2023-04-16T20:43:10.422Z,10.45
2023-04-16T20:45:41.090Z,10.42
2023-04-16T20:48:09.743Z,10.37
2023-04-16T20:50:38.207Z,10.33
2023-04-16T20:53:06.518Z,10.30
2023-04-16T20:55:34.981Z,10.29
2023-04-16T20:58:03.248Z,10.25
2023-04-16T21:00:31.439Z,10.20
2023-04-16T21:03:00.175Z,10.16
2023-04-16T21:05:30.195Z,10.11
2023-04-16T21:07:58.519Z,10.07
2023-04-16T21:10:26.989Z,10.03
2023-04-16T21:12:55.796Z,10.00
2023-04-16T21:15:24.018Z,9.99
2023-04-16T21:17:52.543Z,9.99
2023-04-16T21:20:20.947Z,9.98
2023-04-16T21:22:50.541Z,10.01
2023-04-16T21:25:18.708Z,10.02
2023-04-16T21:27:46.986Z,10.01
2023-04-16T21:30:16.021Z,10.03
2023-04-16T21:32:44.875Z,10.02
2023-04-16T21:35:13.563Z,10.04
2023-04-16T21:37:41.947Z,10.05
2023-04-16T21:40:10.751Z,10.05
2023-04-16T21:42:42.493Z,10.06
2023-04-16T21:45:11.403Z,10.03
2023-04-16T21:47:39.780Z,9.99
2023-04-16T21:50:09.008Z,10.00
2023-04-16T21:52:40.848Z,9.99
2023-04-16T21:55:09.934Z,9.97
2023-04-16T21:57:38.202Z,9.97
2023-04-16T22:00:14.890Z,9.98
2023-04-16T22:02:43.687Z,9.94
2023-04-16T22:05:12.415Z,9.92
2023-04-16T22:07:40.766Z,9.93
2023-04-16T22:10:09.846Z,9.98
2023-04-16T22:12:38.112Z,10.02
2023-04-16T22:15:07.430Z,10.09
2023-04-16T22:17:36.093Z,10.10
2023-04-16T22:20:13.337Z,10.06
2023-04-16T22:22:42.726Z,10.04
2023-04-16T22:25:11.653Z,10.04
2023-04-16T22:27:40.069Z,10.08
2023-04-16T22:30:09.497Z,10.12
2023-04-16T22:32:38.617Z,10.14
2023-04-16T22:35:07.818Z,10.17
2023-04-16T22:37:35.911Z,10.22
2023-04-16T22:40:08.551Z,10.25
2023-04-16T22:42:37.210Z,10.26
2023-04-16T22:45:06.258Z,10.25
2023-04-16T22:47:35.023Z,10.23
2023-04-16T22:50:03.496Z,10.24
2023-04-16T22:52:32.104Z,10.27
2023-04-16T22:55:00.450Z,10.27
2023-04-16T22:57:28.925Z,10.27
2023-04-16T22:59:57.429Z,10.27
2023-04-16T23:02:25.808Z,10.25
2023-04-16T23:04:54.413Z,10.23
2023-04-16T23:07:22.651Z,10.21
2023-04-16T23:09:51.178Z,10.22
2023-04-16T23:12:19.425Z,10.21
2023-04-16T23:14:48.410Z,10.19
2023-04-16T23:17:16.527Z,10.19
2023-04-16T23:19:44.656Z,10.16
2023-04-16T23:22:13.181Z,10.14
2023-04-16T23:24:41.420Z,10.08
2023-04-16T23:27:09.807Z,10.02
2023-04-16T23:29:38.179Z,10.00
2023-04-16T23:32:06.561Z,9.97
2023-04-16T23:34:34.775Z,9.96
2023-04-16T23:37:03.134Z,9.93
2023-04-16T23:39:31.406Z,9.91
2023-04-16T23:41:59.994Z,9.89
2023-04-16T23:44:28.048Z,9.90
2023-04-16T23:46:56.581Z,9.90
2023-04-16T23:49:25.148Z,9.88
2023-04-16T23:51:53.366Z,9.88
2023-04-16T23:54:22.202Z,9.86
2023-04-16T23:56:51.080Z,9.83
2023-04-16T23:59:19.782Z,9.78
